Ida — C4CZ2 — position and weather

sailwx.info

Track history (hours):
 
Tides and Currents Weather Stations Pressure Air Temp Water Temp Dewpoint Dewpoint Depression Visibility Wind Speed Wind Dir Waves Ship Positions

Ida

Last reported at 2017-Jun-26 02:06 UTC. Time now 2017-Jun-27 22:42 UTC.
Position N 54°40' E 019°50'.

Length 82 m; draft 3.2 m.

Type: Cargo ship. MMSI: 210319000.

Date/timePositionNaut miles runAvg speedWind from/ knotsBaromVisibWave heightAir tempDewpointWater temp
2017-Jun-26 02:06N 54°40' E 019°50'1 6.2
2017-Jun-26 01:57N 54°40' E 019°48'4 8.3
2017-Jun-26 01:31N 54°42' E 019°43'5 9.3
2017-Jun-26 01:00N 54°44' E 019°36'5 9.1
2017-Jun-26 00:30N 54°46' E 019°28'5 9.1
2017-Jun-26 00:00N 54°48' E 019°21'5 9.2
2017-Jun-25 23:30N 54°49' E 019°13'5 9.1
2017-Jun-25 23:00N 54°51' E 019°06'5 9.2
2017-Jun-25 22:30N 54°52' E 018°58'5 9.3
2017-Jun-25 22:01N 54°53' E 018°51'5 9.5
2017-Jun-25 21:31N 54°55' E 018°43'5 9.6
2017-Jun-25 21:00N 54°55' E 018°35'5 9.7
2017-Jun-25 20:30N 54°55' E 018°26'5 9.8
2017-Jun-25 20:00N 54°55' E 018°18'510.0
2017-Jun-25 19:29N 54°55' E 018°09'181 9.3
2017-Jun-25 00:02N 54°41' E 012°56'0 9.6
2017-Jun-25 00:01N 54°41' E 012°56'5 9.7
2017-Jun-24 23:31N 54°40' E 012°48'5 9.5
2017-Jun-24 23:01N 54°38' E 012°40'5 9.6
2017-Jun-24 22:31N 54°36' E 012°33'5 9.8
2017-Jun-24 22:00N 54°34' E 012°25'5 9.7
2017-Jun-24 21:30N 54°31' E 012°18'5 9.0
2017-Jun-24 20:56N 54°27' E 012°13'4 8.3
2017-Jun-24 20:25N 54°25' E 012°07'4 9.6
2017-Jun-24 20:01N 54°25' E 011°60'5 9.7
2017-Jun-24 19:31N 54°25' E 011°52'21 9.6
2017-Jun-24 17:22N 54°32' E 011°19'410.0
2017-Jun-24 17:00N 54°33' E 011°13'5 9.8
2017-Jun-24 16:30N 54°34' E 011°05'12 9.7
2017-Jun-24 15:15N 54°34' E 010°44'7 9.3
2017-Jun-24 14:32N 54°32' E 010°32'7 9.4
2017-Jun-24 13:51N 54°30' E 010°22'3 9.3
2017-Jun-24 13:30N 54°28' E 010°17'5 9.3
2017-Jun-24 13:00N 54°24' E 010°13'37 5.2
2017-Jun-24 05:51N 54°05' E 009°19'3 8.5
2017-Jun-24 05:30N 54°02' E 009°18'4 8.3
2017-Jun-24 05:01N 53°58' E 009°15'4 8.5
2017-Jun-24 04:30N 53°55' E 009°10'1 2.8
2017-Jun-24 04:00N 53°54' E 009°09'1 2.2
2017-Jun-24 03:31N 53°53' E 009°07'0 0.7
2017-Jun-24 03:00N 53°53' E 009°06'1 1.5
2017-Jun-24 02:31N 53°53' E 009°05'1 1.7
2017-Jun-24 02:01N 53°53' E 009°04'4 8.0
2017-Jun-24 01:31N 53°51' E 008°58'5 9.2
2017-Jun-24 01:00N 53°50' E 008°50'5 9.0
2017-Jun-24 00:30N 53°52' E 008°43'5 9.4
2017-Jun-24 00:00N 53°56' E 008°39'5 9.6
2017-Jun-23 23:30N 53°58' E 008°32'5 9.9
2017-Jun-23 23:00N 53°59' E 008°23'5 9.7
2017-Jun-23 22:30N 53°59' E 008°15'5 9.8
2017-Jun-23 22:00N 53°59' E 008°07'5 9.8
2017-Jun-23 21:30N 53°58' E 007°58'96 9.3
2017-Jun-23 11:13N 53°33' E 005°23'2 8.1
2017-Jun-23 11:00N 53°32' E 005°20'4 8.1
2017-Jun-23 10:28N 53°31' E 005°13'7 8.4
2017-Jun-23 09:36N 53°28' E 005°02'3 8.5
2017-Jun-23 09:18N 53°27' E 004°58'3 8.6
2017-Jun-23 09:00N 53°26' E 004°54'4 8.7
2017-Jun-23 08:30N 53°24' E 004°47'4 8.2
2017-Jun-23 08:00N 53°21' E 004°42'12 8.8
2017-Jun-23 06:39N 53°11' E 004°32'4 8.8
2017-Jun-23 06:11N 53°07' E 004°29'2 8.9
2017-Jun-23 06:00N 53°06' E 004°28'5 9.1
2017-Jun-23 05:30N 53°02' E 004°24'5 9.3
2017-Jun-23 04:59N 52°58' E 004°20'6 9.7
2017-Jun-23 04:20N 52°52' E 004°15'2410.3
2017-Jun-23 01:59N 52°31' E 003°55'610.7
2017-Jun-23 01:24N 52°26' E 003°50'810.9
2017-Jun-23 00:39N 52°19' E 003°43'2914.3
2017-Jun-22 22:38N 51°53' E 003°21'0 0.0
2017-Jun-22 22:30N 51°53' E 003°21'0 0.0
2017-Jun-22 22:00N 51°53' E 003°21'814.5
2017-Jun-22 21:26N 51°45' E 003°18'0 0.0
2017-Jun-22 21:00N 51°45' E 003°18'3 7.0
2017-Jun-22 20:30N 51°42' E 003°16'2 4.3
2017-Jun-22 19:56N 51°40' E 003°19'3 7.5
2017-Jun-22 19:30N 51°37' E 003°22'4 7.4
2017-Jun-22 19:00N 51°34' E 003°25'3 6.9
2017-Jun-22 18:30N 51°31' E 003°27'4 7.4
2017-Jun-22 18:00N 51°28' E 003°31'4 7.7
2017-Jun-22 17:30N 51°26' E 003°36'3 5.1
2017-Jun-22 17:00N 51°27' E 003°40'510.0
2017-Jun-22 16:30N 51°24' E 003°46'4 9.0
2017-Jun-22 16:00N 51°23' E 003°53'510.3
2017-Jun-22 15:30N 51°27' E 003°58'510.9
2017-Jun-22 15:00N 51°24' E 004°05'3 3.3
2017-Jun-22 14:00N 51°23' E 004°10'2 3.4
2017-Jun-22 13:30N 51°23' E 004°13'4 7.6
2017-Jun-22 13:00N 51°20' E 004°17'3 7.1
2017-Jun-22 12:30N 51°17' E 004°20'0 0.6
2017-Jun-22 12:00N 51°17' E 004°20'1 1.2
2017-Jun-22 11:31N 51°16' E 004°21'2 4.9
2017-Jun-22 11:01N 51°15' E 004°24'0 0.1
2017-Jun-22 10:30N 51°15' E 004°24'0 0.0
2017-Jun-22 10:00N 51°15' E 004°24'0 0.0
2017-Jun-22 09:30N 51°15' E 004°24'0 0.0
2017-Jun-22 09:00N 51°15' E 004°24'0 0.0
2017-Jun-22 08:30N 51°15' E 004°24'0 0.0
2017-Jun-22 08:00N 51°15' E 004°24'0 0.0
2017-Jun-22 07:30N 51°15' E 004°24'0 0.0
2017-Jun-22 07:00N 51°15' E 004°24'0 0.0
2017-Jun-22 06:30N 51°15' E 004°24'0 0.0
2017-Jun-22 06:00N 51°15' E 004°24'0 0.0
2017-Jun-22 05:30N 51°15' E 004°24'0 0.0
2017-Jun-22 05:00N 51°15' E 004°24'0 0.0
2017-Jun-22 04:30N 51°15' E 004°24'0 0.0
2017-Jun-22 04:00N 51°15' E 004°24'0 0.0
2017-Jun-22 03:30N 51°15' E 004°24'0 0.0
2017-Jun-22 03:00N 51°15' E 004°24'0 0.0
2017-Jun-22 02:30N 51°15' E 004°24'0 0.0
2017-Jun-22 02:00N 51°15' E 004°24'0 0.0
2017-Jun-22 01:30N 51°15' E 004°24'0 0.0
2017-Jun-22 01:00N 51°15' E 004°24'0 0.0
2017-Jun-22 00:30N 51°15' E 004°24'0 0.0
2017-Jun-22 00:00N 51°15' E 004°24'0 0.0
2017-Jun-21 23:30N 51°15' E 004°24'0 0.0
2017-Jun-21 23:00N 51°15' E 004°24'0 0.0
2017-Jun-21 22:30N 51°15' E 004°24'0 0.0
2017-Jun-21 22:00N 51°15' E 004°24'0 0.0
2017-Jun-21 21:30N 51°15' E 004°24'0 0.0
2017-Jun-21 21:00N 51°15' E 004°24'0 0.0
2017-Jun-21 20:30N 51°15' E 004°24'0 0.0
2017-Jun-21 20:00N 51°15' E 004°24'0 0.1
2017-Jun-21 19:30N 51°15' E 004°24'0 0.0
2017-Jun-21 19:00N 51°15' E 004°24'0 0.0
2017-Jun-21 18:30N 51°15' E 004°24'0 0.0
2017-Jun-21 18:00N 51°15' E 004°24'0 0.0
2017-Jun-21 17:30N 51°15' E 004°24'0 0.1
2017-Jun-21 17:00N 51°15' E 004°24'0 0.1
2017-Jun-21 16:30N 51°15' E 004°24'0 0.0
2017-Jun-21 16:00N 51°15' E 004°24'0 0.0
2017-Jun-21 15:30N 51°15' E 004°24'0 0.0
2017-Jun-21 15:00N 51°15' E 004°24'0 0.0
2017-Jun-21 14:00N 51°15' E 004°24'0 0.0
2017-Jun-21 13:30N 51°15' E 004°24'0 0.0
2017-Jun-21 13:00N 51°15' E 004°24'0 0.0
2017-Jun-21 12:30N 51°15' E 004°24'0 0.0
2017-Jun-21 12:00N 51°15' E 004°24'0 0.1
2017-Jun-21 11:30N 51°15' E 004°24'0 0.1
2017-Jun-21 11:00N 51°15' E 004°24'0 0.2
2017-Jun-21 10:31N 51°15' E 004°24'2 3.1
2017-Jun-21 10:01N 51°15' E 004°22'2 3.6
2017-Jun-21 09:31N 51°17' E 004°20'1 1.2
2017-Jun-21 09:00N 51°17' E 004°19'1 2.6
2017-Jun-21 08:30N 51°18' E 004°18'4 7.4
2017-Jun-21 08:00N 51°21' E 004°15'4 7.4
2017-Jun-21 07:29N 51°23' E 004°09'5 9.4
2017-Jun-21 07:00N 51°23' E 004°02'5 9.5
2017-Jun-21 06:30N 51°27' E 003°58'5 9.7
2017-Jun-21 06:00N 51°23' E 003°54'4 8.1
2017-Jun-21 05:30N 51°23' E 003°47'4 8.0
2017-Jun-21 05:00N 51°24' E 003°41'4 5.5
2017-Jun-21 04:20N 51°25' E 003°35'0 0.0
2017-Jun-21 03:50N 51°25' E 003°35'0 0.0
2017-Jun-21 03:14N 51°25' E 003°35'0 0.0
2017-Jun-21 02:50N 51°25' E 003°35'0 0.0
2017-Jun-21 02:22N 51°25' E 003°35'1 2.3
2017-Jun-21 02:00N 51°26' E 003°36'3 5.3
2017-Jun-21 01:30N 51°27' E 003°32'4 7.8
2017-Jun-21 01:00N 51°30' E 003°28'4 7.6
2017-Jun-21 00:30N 51°33' E 003°25'4 8.5
2017-Jun-21 00:00N 51°37' E 003°21'4 8.7
2017-Jun-20 23:30N 51°41' E 003°18'4 8.3
2017-Jun-20 23:01N 51°44' E 003°14'5 9.0
2017-Jun-20 22:30N 51°47' E 003°08'4 8.3
2017-Jun-20 22:00N 51°48' E 003°02'29 8.9
2017-Jun-20 18:43N 52°09' E 002°29'5 9.4
2017-Jun-20 18:13N 52°13' E 002°24'2 9.7
2017-Jun-20 18:00N 52°15' E 002°22'510.0
2017-Jun-20 17:30N 52°19' E 002°18'610.2
2017-Jun-20 16:54N 52°24' E 002°13'610.3
2017-Jun-20 16:21N 52°29' E 002°08'510.7
2017-Jun-20 15:55N 52°33' E 002°04'510.9
2017-Jun-20 15:26N 52°37' E 001°59'711.0
2017-Jun-20 14:48N 52°43' E 001°53'310.7
2017-Jun-20 14:30N 52°45' E 001°49'1010.2
2017-Jun-20 13:31N 52°51' E 001°35'5 9.5
2017-Jun-20 13:01N 52°54' E 001°29'5 9.5
2017-Jun-20 12:31N 52°56' E 001°22'5 9.2
2017-Jun-20 12:01N 52°59' E 001°15'12 0.3
2017-Jun-18 15:06N 53°07' E 001°01'1 8.2
2017-Jun-18 15:00N 53°06' E 001°02'8 7.7
2017-Jun-18 14:00N 53°05' E 001°15'4 7.2
2017-Jun-18 13:30N 53°04' E 001°21'4 7.2
2017-Jun-18 13:00N 53°03' E 001°26'4 7.5
2017-Jun-18 12:30N 53°02' E 001°32'4 7.8
2017-Jun-18 12:01N 53°01' E 001°39'4 8.1
2017-Jun-18 11:30N 53°00' E 001°45'4 8.5
2017-Jun-18 11:00N 52°59' E 001°52'4 8.8
2017-Jun-18 10:30N 52°59' E 001°60'7 9.0
2017-Jun-18 09:43N 52°59' E 002°11'2 9.0
2017-Jun-18 09:30N 52°60' E 002°15'66 9.2
2017-Jun-18 02:20N 53°18' E 004°01'4 8.8
2017-Jun-18 01:52N 53°19' E 004°07'13 8.3
2017-Jun-18 00:16N 53°25' E 004°28'2 8.0
2017-Jun-17 23:59N 53°26' E 004°31'4 7.9
2017-Jun-17 23:30N 53°27' E 004°37'4 7.7
2017-Jun-17 22:57N 53°29' E 004°43'3 7.5
2017-Jun-17 22:30N 53°30' E 004°48'7 7.7
2017-Jun-17 21:34N 53°33' E 004°60'11 8.6
2017-Jun-17 20:16N 53°36' E 005°18'109 8.4
2017-Jun-17 07:15N 54°00' E 008°17'3 9.8
2017-Jun-17 07:00N 53°60' E 008°21'710.1
2017-Jun-17 06:17N 53°58' E 008°33'3 9.0
2017-Jun-17 05:58N 53°57' E 008°38'5 8.2
2017-Jun-17 05:25N 53°54' E 008°42'3 7.3
2017-Jun-17 04:59N 53°51' E 008°46'3 6.7
2017-Jun-17 04:30N 53°50' E 008°51'3 6.8
2017-Jun-17 04:00N 53°51' E 008°57'3 5.8
2017-Jun-17 03:31N 53°52' E 009°01'3 6.4
2017-Jun-17 03:01N 53°53' E 009°07'2 3.2
2017-Jun-17 02:30N 53°54' E 009°09'3 5.2
2017-Jun-17 02:00N 53°55' E 009°12'4 8.1
2017-Jun-17 01:30N 53°59' E 009°16'4 8.2
2017-Jun-17 00:59N 54°03' E 009°18'72 5.4
2017-Jun-16 11:40N 54°36' E 011°08'1 7.3
2017-Jun-16 11:30N 54°36' E 011°10'4 7.8
2017-Jun-16 11:00N 54°34' E 011°16'13 7.7
2017-Jun-16 09:16N 54°29' E 011°37'2 7.6
2017-Jun-16 09:00N 54°29' E 011°40'4 7.7
2017-Jun-16 08:30N 54°27' E 011°46'6 7.7
2017-Jun-16 07:47N 54°26' E 011°56'2 7.9
2017-Jun-16 07:31N 54°26' E 011°60'4 8.1
2017-Jun-16 07:00N 54°27' E 012°06'4 7.4
2017-Jun-16 06:31N 54°29' E 012°11'4 8.4
2017-Jun-16 06:00N 54°33' E 012°13'4 8.5
2017-Jun-16 05:30N 54°37' E 012°16'4 8.2
2017-Jun-16 05:00N 54°40' E 012°22'4 8.2
2017-Jun-16 04:30N 54°42' E 012°28'  
Track history (hours):
 
Tides and Currents Weather Stations Pressure Air Temp Water Temp Dewpoint Dewpoint Depression Visibility Wind Speed Wind Dir Waves Ship Positions

Ida

Last reported at 2017-Jun-26 02:06 UTC. Time now 2017-Jun-27 22:42 UTC.
Position N 54°40' E 019°50'.

Length 82 m; draft 3.2 m.

Type: Cargo ship. MMSI: 210319000.

Date/timePositionNaut miles runAvg speedWind from/ knotsBaromVisibWave heightAir tempDewpointWater temp
2017-Jun-26 02:06N 54°40' E 019°50'1 6.2
2017-Jun-26 01:57N 54°40' E 019°48'4 8.3
2017-Jun-26 01:31N 54°42' E 019°43'5 9.3
2017-Jun-26 01:00N 54°44' E 019°36'5 9.1
2017-Jun-26 00:30N 54°46' E 019°28'5 9.1
2017-Jun-26 00:00N 54°48' E 019°21'5 9.2
2017-Jun-25 23:30N 54°49' E 019°13'5 9.1
2017-Jun-25 23:00N 54°51' E 019°06'5 9.2
2017-Jun-25 22:30N 54°52' E 018°58'5 9.3
2017-Jun-25 22:01N 54°53' E 018°51'5 9.5
2017-Jun-25 21:31N 54°55' E 018°43'5 9.6
2017-Jun-25 21:00N 54°55' E 018°35'5 9.7
2017-Jun-25 20:30N 54°55' E 018°26'5 9.8
2017-Jun-25 20:00N 54°55' E 018°18'510.0
2017-Jun-25 19:29N 54°55' E 018°09'181 9.3
2017-Jun-25 00:02N 54°41' E 012°56'0 9.6
2017-Jun-25 00:01N 54°41' E 012°56'5 9.7
2017-Jun-24 23:31N 54°40' E 012°48'5 9.5
2017-Jun-24 23:01N 54°38' E 012°40'5 9.6
2017-Jun-24 22:31N 54°36' E 012°33'5 9.8
2017-Jun-24 22:00N 54°34' E 012°25'5 9.7
2017-Jun-24 21:30N 54°31' E 012°18'5 9.0
2017-Jun-24 20:56N 54°27' E 012°13'4 8.3
2017-Jun-24 20:25N 54°25' E 012°07'4 9.6
2017-Jun-24 20:01N 54°25' E 011°60'5 9.7
2017-Jun-24 19:31N 54°25' E 011°52'21 9.6
2017-Jun-24 17:22N 54°32' E 011°19'410.0
2017-Jun-24 17:00N 54°33' E 011°13'5 9.8
2017-Jun-24 16:30N 54°34' E 011°05'12 9.7
2017-Jun-24 15:15N 54°34' E 010°44'7 9.3
2017-Jun-24 14:32N 54°32' E 010°32'7 9.4
2017-Jun-24 13:51N 54°30' E 010°22'3 9.3
2017-Jun-24 13:30N 54°28' E 010°17'5 9.3
2017-Jun-24 13:00N 54°24' E 010°13'37 5.2
2017-Jun-24 05:51N 54°05' E 009°19'3 8.5
2017-Jun-24 05:30N 54°02' E 009°18'4 8.3
2017-Jun-24 05:01N 53°58' E 009°15'4 8.5
2017-Jun-24 04:30N 53°55' E 009°10'1 2.8
2017-Jun-24 04:00N 53°54' E 009°09'1 2.2
2017-Jun-24 03:31N 53°53' E 009°07'0 0.7
2017-Jun-24 03:00N 53°53' E 009°06'1 1.5
2017-Jun-24 02:31N 53°53' E 009°05'1 1.7
2017-Jun-24 02:01N 53°53' E 009°04'4 8.0
2017-Jun-24 01:31N 53°51' E 008°58'5 9.2
2017-Jun-24 01:00N 53°50' E 008°50'5 9.0
2017-Jun-24 00:30N 53°52' E 008°43'5 9.4
2017-Jun-24 00:00N 53°56' E 008°39'5 9.6
2017-Jun-23 23:30N 53°58' E 008°32'5 9.9
2017-Jun-23 23:00N 53°59' E 008°23'5 9.7
2017-Jun-23 22:30N 53°59' E 008°15'5 9.8
2017-Jun-23 22:00N 53°59' E 008°07'5 9.8
2017-Jun-23 21:30N 53°58' E 007°58'96 9.3
2017-Jun-23 11:13N 53°33' E 005°23'2 8.1
2017-Jun-23 11:00N 53°32' E 005°20'4 8.1
2017-Jun-23 10:28N 53°31' E 005°13'7 8.4
2017-Jun-23 09:36N 53°28' E 005°02'3 8.5
2017-Jun-23 09:18N 53°27' E 004°58'3 8.6
2017-Jun-23 09:00N 53°26' E 004°54'4 8.7
2017-Jun-23 08:30N 53°24' E 004°47'4 8.2
2017-Jun-23 08:00N 53°21' E 004°42'12 8.8
2017-Jun-23 06:39N 53°11' E 004°32'4 8.8
2017-Jun-23 06:11N 53°07' E 004°29'2 8.9
2017-Jun-23 06:00N 53°06' E 004°28'5 9.1
2017-Jun-23 05:30N 53°02' E 004°24'5 9.3
2017-Jun-23 04:59N 52°58' E 004°20'6 9.7
2017-Jun-23 04:20N 52°52' E 004°15'2410.3
2017-Jun-23 01:59N 52°31' E 003°55'610.7
2017-Jun-23 01:24N 52°26' E 003°50'810.9
2017-Jun-23 00:39N 52°19' E 003°43'2914.3
2017-Jun-22 22:38N 51°53' E 003°21'0 0.0
2017-Jun-22 22:30N 51°53' E 003°21'0 0.0
2017-Jun-22 22:00N 51°53' E 003°21'814.5
2017-Jun-22 21:26N 51°45' E 003°18'0 0.0
2017-Jun-22 21:00N 51°45' E 003°18'3 7.0
2017-Jun-22 20:30N 51°42' E 003°16'2 4.3
2017-Jun-22 19:56N 51°40' E 003°19'3 7.5
2017-Jun-22 19:30N 51°37' E 003°22'4 7.4
2017-Jun-22 19:00N 51°34' E 003°25'3 6.9
2017-Jun-22 18:30N 51°31' E 003°27'4 7.4
2017-Jun-22 18:00N 51°28' E 003°31'4 7.7
2017-Jun-22 17:30N 51°26' E 003°36'3 5.1
2017-Jun-22 17:00N 51°27' E 003°40'510.0
2017-Jun-22 16:30N 51°24' E 003°46'4 9.0
2017-Jun-22 16:00N 51°23' E 003°53'510.3
2017-Jun-22 15:30N 51°27' E 003°58'510.9
2017-Jun-22 15:00N 51°24' E 004°05'3 3.3
2017-Jun-22 14:00N 51°23' E 004°10'2 3.4
2017-Jun-22 13:30N 51°23' E 004°13'4 7.6
2017-Jun-22 13:00N 51°20' E 004°17'3 7.1
2017-Jun-22 12:30N 51°17' E 004°20'0 0.6
2017-Jun-22 12:00N 51°17' E 004°20'1 1.2
2017-Jun-22 11:31N 51°16' E 004°21'2 4.9
2017-Jun-22 11:01N 51°15' E 004°24'0 0.1
2017-Jun-22 10:30N 51°15' E 004°24'0 0.0
2017-Jun-22 10:00N 51°15' E 004°24'0 0.0
2017-Jun-22 09:30N 51°15' E 004°24'0 0.0
2017-Jun-22 09:00N 51°15' E 004°24'0 0.0
2017-Jun-22 08:30N 51°15' E 004°24'0 0.0
2017-Jun-22 08:00N 51°15' E 004°24'0 0.0
2017-Jun-22 07:30N 51°15' E 004°24'0 0.0
2017-Jun-22 07:00N 51°15' E 004°24'0 0.0
2017-Jun-22 06:30N 51°15' E 004°24'0 0.0
2017-Jun-22 06:00N 51°15' E 004°24'0 0.0
2017-Jun-22 05:30N 51°15' E 004°24'0 0.0
2017-Jun-22 05:00N 51°15' E 004°24'0 0.0
2017-Jun-22 04:30N 51°15' E 004°24'0 0.0
2017-Jun-22 04:00N 51°15' E 004°24'0 0.0
2017-Jun-22 03:30N 51°15' E 004°24'0 0.0
2017-Jun-22 03:00N 51°15' E 004°24'0 0.0
2017-Jun-22 02:30N 51°15' E 004°24'0 0.0
2017-Jun-22 02:00N 51°15' E 004°24'0 0.0
2017-Jun-22 01:30N 51°15' E 004°24'0 0.0
2017-Jun-22 01:00N 51°15' E 004°24'0 0.0
2017-Jun-22 00:30N 51°15' E 004°24'0 0.0
2017-Jun-22 00:00N 51°15' E 004°24'0 0.0
2017-Jun-21 23:30N 51°15' E 004°24'0 0.0
2017-Jun-21 23:00N 51°15' E 004°24'0 0.0
2017-Jun-21 22:30N 51°15' E 004°24'0 0.0
2017-Jun-21 22:00N 51°15' E 004°24'0 0.0
2017-Jun-21 21:30N 51°15' E 004°24'0 0.0
2017-Jun-21 21:00N 51°15' E 004°24'0 0.0
2017-Jun-21 20:30N 51°15' E 004°24'0 0.0
2017-Jun-21 20:00N 51°15' E 004°24'0 0.1
2017-Jun-21 19:30N 51°15' E 004°24'0 0.0
2017-Jun-21 19:00N 51°15' E 004°24'0 0.0
2017-Jun-21 18:30N 51°15' E 004°24'0 0.0
2017-Jun-21 18:00N 51°15' E 004°24'0 0.0
2017-Jun-21 17:30N 51°15' E 004°24'0 0.1
2017-Jun-21 17:00N 51°15' E 004°24'0 0.1
2017-Jun-21 16:30N 51°15' E 004°24'0 0.0
2017-Jun-21 16:00N 51°15' E 004°24'0 0.0
2017-Jun-21 15:30N 51°15' E 004°24'0 0.0
2017-Jun-21 15:00N 51°15' E 004°24'0 0.0
2017-Jun-21 14:00N 51°15' E 004°24'0 0.0
2017-Jun-21 13:30N 51°15' E 004°24'0 0.0
2017-Jun-21 13:00N 51°15' E 004°24'0 0.0
2017-Jun-21 12:30N 51°15' E 004°24'0 0.0
2017-Jun-21 12:00N 51°15' E 004°24'0 0.1
2017-Jun-21 11:30N 51°15' E 004°24'0 0.1
2017-Jun-21 11:00N 51°15' E 004°24'0 0.2
2017-Jun-21 10:31N 51°15' E 004°24'2 3.1
2017-Jun-21 10:01N 51°15' E 004°22'2 3.6
2017-Jun-21 09:31N 51°17' E 004°20'1 1.2
2017-Jun-21 09:00N 51°17' E 004°19'1 2.6
2017-Jun-21 08:30N 51°18' E 004°18'4 7.4
2017-Jun-21 08:00N 51°21' E 004°15'4 7.4
2017-Jun-21 07:29N 51°23' E 004°09'5 9.4
2017-Jun-21 07:00N 51°23' E 004°02'5 9.5
2017-Jun-21 06:30N 51°27' E 003°58'5 9.7
2017-Jun-21 06:00N 51°23' E 003°54'4 8.1
2017-Jun-21 05:30N 51°23' E 003°47'4 8.0
2017-Jun-21 05:00N 51°24' E 003°41'4 5.5
2017-Jun-21 04:20N 51°25' E 003°35'0 0.0
2017-Jun-21 03:50N 51°25' E 003°35'0 0.0
2017-Jun-21 03:14N 51°25' E 003°35'0 0.0
2017-Jun-21 02:50N 51°25' E 003°35'0 0.0
2017-Jun-21 02:22N 51°25' E 003°35'1 2.3
2017-Jun-21 02:00N 51°26' E 003°36'3 5.3
2017-Jun-21 01:30N 51°27' E 003°32'4 7.8
2017-Jun-21 01:00N 51°30' E 003°28'4 7.6
2017-Jun-21 00:30N 51°33' E 003°25'4 8.5
2017-Jun-21 00:00N 51°37' E 003°21'4 8.7
2017-Jun-20 23:30N 51°41' E 003°18'4 8.3
2017-Jun-20 23:01N 51°44' E 003°14'5 9.0
2017-Jun-20 22:30N 51°47' E 003°08'4 8.3
2017-Jun-20 22:00N 51°48' E 003°02'29 8.9
2017-Jun-20 18:43N 52°09' E 002°29'5 9.4
2017-Jun-20 18:13N 52°13' E 002°24'2 9.7
2017-Jun-20 18:00N 52°15' E 002°22'510.0
2017-Jun-20 17:30N 52°19' E 002°18'610.2
2017-Jun-20 16:54N 52°24' E 002°13'610.3
2017-Jun-20 16:21N 52°29' E 002°08'510.7
2017-Jun-20 15:55N 52°33' E 002°04'510.9
2017-Jun-20 15:26N 52°37' E 001°59'711.0
2017-Jun-20 14:48N 52°43' E 001°53'310.7
2017-Jun-20 14:30N 52°45' E 001°49'1010.2
2017-Jun-20 13:31N 52°51' E 001°35'5 9.5
2017-Jun-20 13:01N 52°54' E 001°29'5 9.5
2017-Jun-20 12:31N 52°56' E 001°22'5 9.2
2017-Jun-20 12:01N 52°59' E 001°15'12 0.3
2017-Jun-18 15:06N 53°07' E 001°01'1 8.2
2017-Jun-18 15:00N 53°06' E 001°02'8 7.7
2017-Jun-18 14:00N 53°05' E 001°15'4 7.2
2017-Jun-18 13:30N 53°04' E 001°21'4 7.2
2017-Jun-18 13:00N 53°03' E 001°26'4 7.5
2017-Jun-18 12:30N 53°02' E 001°32'4 7.8
2017-Jun-18 12:01N 53°01' E 001°39'4 8.1
2017-Jun-18 11:30N 53°00' E 001°45'4 8.5
2017-Jun-18 11:00N 52°59' E 001°52'4 8.8
2017-Jun-18 10:30N 52°59' E 001°60'7 9.0
2017-Jun-18 09:43N 52°59' E 002°11'2 9.0
2017-Jun-18 09:30N 52°60' E 002°15'66 9.2
2017-Jun-18 02:20N 53°18' E 004°01'4 8.8
2017-Jun-18 01:52N 53°19' E 004°07'13 8.3
2017-Jun-18 00:16N 53°25' E 004°28'2 8.0
2017-Jun-17 23:59N 53°26' E 004°31'4 7.9
2017-Jun-17 23:30N 53°27' E 004°37'4 7.7
2017-Jun-17 22:57N 53°29' E 004°43'3 7.5
2017-Jun-17 22:30N 53°30' E 004°48'7 7.7
2017-Jun-17 21:34N 53°33' E 004°60'11 8.6
2017-Jun-17 20:16N 53°36' E 005°18'109 8.4
2017-Jun-17 07:15N 54°00' E 008°17'3 9.8
2017-Jun-17 07:00N 53°60' E 008°21'710.1
2017-Jun-17 06:17N 53°58' E 008°33'3 9.0
2017-Jun-17 05:58N 53°57' E 008°38'5 8.2
2017-Jun-17 05:25N 53°54' E 008°42'3 7.3
2017-Jun-17 04:59N 53°51' E 008°46'3 6.7
2017-Jun-17 04:30N 53°50' E 008°51'3 6.8
2017-Jun-17 04:00N 53°51' E 008°57'3 5.8
2017-Jun-17 03:31N 53°52' E 009°01'3 6.4
2017-Jun-17 03:01N 53°53' E 009°07'2 3.2
2017-Jun-17 02:30N 53°54' E 009°09'3 5.2
2017-Jun-17 02:00N 53°55' E 009°12'4 8.1
2017-Jun-17 01:30N 53°59' E 009°16'4 8.2
2017-Jun-17 00:59N 54°03' E 009°18'72 5.4
2017-Jun-16 11:40N 54°36' E 011°08'1 7.3
2017-Jun-16 11:30N 54°36' E 011°10'4 7.8
2017-Jun-16 11:00N 54°34' E 011°16'13 7.7
2017-Jun-16 09:16N 54°29' E 011°37'2 7.6
2017-Jun-16 09:00N 54°29' E 011°40'4 7.7
2017-Jun-16 08:30N 54°27' E 011°46'6 7.7
2017-Jun-16 07:47N 54°26' E 011°56'2 7.9
2017-Jun-16 07:31N 54°26' E 011°60'4 8.1
2017-Jun-16 07:00N 54°27' E 012°06'4 7.4
2017-Jun-16 06:31N 54°29' E 012°11'4 8.4
2017-Jun-16 06:00N 54°33' E 012°13'4 8.5
2017-Jun-16 05:30N 54°37' E 012°16'4 8.2
2017-Jun-16 05:00N 54°40' E 012°22'4 8.2
2017-Jun-16 04:30N 54°42' E 012°28'  

Dump ship's entire track history